Time;durP1;ratioP1;P1;durP2;ratioP2;P2;SDS_P1;SDS_P2;PMS_P1;PMS_P2;Temp;Humidity;BMP_temperature;BMP_pressure;BME280_temperature;BME280_humidity;BME280_pressure;Samples;Min_cycle;Max_cycle;Signal;HPM_P1;HPM_P2
2023/04/14 00:00:32;;;;;;;;;;;;;;;0.71;56.49;102091.53;10527991;28;19973;-78
2023/04/14 00:05:34;;;;;;;;;;;;;;;0.62;56.83;102103.41;10543800;28;19966;-77
2023/04/14 00:10:36;;;;;;;;;;;;;;;0.58;57.13;102085.88;10538022;28;19920;-77
2023/04/14 00:15:39;;;;;;;;;;;;;;;0.58;57.20;102107.50;10522676;28;19920;-78
2023/04/14 00:20:41;;;;;;;;;;;;;;;0.49;57.71;102101.28;10528351;28;19920;-77
2023/04/14 00:25:43;;;;;;;;;;;;;;;0.48;58.22;102099.63;10537132;28;20285;-78
2023/04/14 00:30:45;;;;;;;;;;;;;;;0.42;57.70;102123.81;10533180;28;20370;-78
2023/04/14 00:35:47;;;;;;;;;;;;;;;0.34;58.10;102129.25;10488657;28;20385;-78
2023/04/14 00:40:49;;;;;;;;;;;;;;;0.33;57.86;102122.16;10493610;28;19932;-78
2023/04/14 00:45:52;;;;;;;;;;;;;;;0.26;58.36;102127.44;10507379;28;19983;-78
2023/04/14 00:50:54;;;;;;;;;;;;;;;0.28;57.47;102120.00;10502996;28;20058;-78
2023/04/14 00:55:57;;;;;;;;;;;;;;;0.28;57.38;102120.00;10509660;28;19920;-78
2023/04/14 01:00:59;;;;;;;;;;;;;;;0.33;56.97;102168.06;10509157;28;19921;-78
2023/04/14 01:06:01;;;;;;;;;;;;;;;0.25;56.95;102141.97;10527267;28;19921;-77
2023/04/14 01:11:03;;;;;;;;;;;;;;;0.18;56.89;102125.63;10517585;28;19943;-78
2023/04/14 01:16:11;;;;;;;;;;;;;;;0.23;56.78;102131.34;10528204;28;19920;-78
2023/04/14 01:21:15;;;;;;;;;;;;;;;0.18;57.17;102144.53;10532818;28;20304;-78
2023/04/14 01:26:17;;;;;;;;;;;;;;;0.15;57.01;102141.31;10518776;28;20198;-78
2023/04/14 01:31:29;;;;;;;;;;;;;;;0.16;56.71;102143.00;10505043;28;19921;-78
2023/04/14 01:36:51;;;;;;;;;;;;;;;0.14;56.44;102142.34;10505416;28;19920;-78
2023/04/14 01:41:54;;;;;;;;;;;;;;;0.14;56.98;102153.97;10533076;28;19920;-77
2023/04/14 01:47:01;;;;;;;;;;;;;;;0.07;56.65;102153.00;10492579;28;19930;-77
2023/04/14 01:52:05;;;;;;;;;;;;;;;0.02;56.81;102159.94;10513514;28;19931;-77
2023/04/14 01:57:07;;;;;;;;;;;;;;;-0.04;56.79;102181.19;10514829;28;19920;-77
2023/04/14 02:02:11;;;;;;;;;;;;;;;-0.07;56.95;102161.81;10525093;28;20813;-78
2023/04/14 02:07:13;;;;;;;;;;;;;;;-0.09;56.95;102162.00;10522388;28;19925;-78
2023/04/14 02:12:15;;;;;;;;;;;;;;;-0.13;57.21;102160.66;10518540;28;19920;-77
2023/04/14 02:17:17;;;;;;;;;;;;;;;-0.12;56.87;102197.44;10479029;28;19927;-78
2023/04/14 02:22:19;;;;;;;;;;;;;;;-0.15;57.15;102176.19;10499362;28;19942;-77
2023/04/14 02:27:40;;;;;;;;;;;;;;;-0.22;57.09;102163.56;10489044;28;19959;-77
2023/04/14 02:32:44;;;;;;;;;;;;;;;-0.26;57.04;102170.31;10509604;28;19921;-76
2023/04/14 02:37:47;;;;;;;;;;;;;;;-0.31;57.13;102187.84;10518890;28;19920;-76
2023/04/14 02:42:55;;;;;;;;;;;;;;;-0.36;57.21;102197.47;10504556;28;19924;-78
2023/04/14 02:47:58;;;;;;;;;;;;;;;-0.40;57.69;102185.34;10488199;28;19927;-77
2023/04/14 02:53:01;;;;;;;;;;;;;;;-0.47;57.63;102203.22;10507476;28;20299;-77
2023/04/14 02:58:20;;;;;;;;;;;;;;;-0.43;57.71;102200.00;10508916;28;19926;-77
2023/04/14 03:03:22;;;;;;;;;;;;;;;-0.43;57.55;102202.69;10510487;28;19920;-78
2023/04/14 03:08:24;;;;;;;;;;;;;;;-0.47;58.30;102187.03;10504998;28;19921;-78
2023/04/14 03:13:27;;;;;;;;;;;;;;;-0.46;58.17;102219.22;10500638;28;20295;-78
2023/04/14 03:18:30;;;;;;;;;;;;;;;-0.49;58.00;102207.94;10490810;28;19931;-77
2023/04/14 03:23:32;;;;;;;;;;;;;;;-0.44;58.14;102213.66;10491018;28;20300;-77
2023/04/14 03:28:40;;;;;;;;;;;;;;;-0.48;57.88;102209.63;10505843;28;19928;-77
2023/04/14 03:33:45;;;;;;;;;;;;;;;-0.48;57.66;102223.94;10520293;28;20411;-77
2023/04/14 03:38:49;;;;;;;;;;;;;;;-0.47;57.30;102208.63;10498221;28;19924;-77
2023/04/14 03:43:55;;;;;;;;;;;;;;;-0.43;57.34;102221.59;10531843;28;19924;-77
2023/04/14 03:48:58;;;;;;;;;;;;;;;-0.42;57.51;102220.56;10531283;28;19920;-77
2023/04/14 03:54:03;;;;;;;;;;;;;;;-0.29;56.50;102216.50;10494194;28;19920;-76
2023/04/14 03:59:06;;;;;;;;;;;;;;;-0.31;56.35;102231.00;10536516;28;20326;-76
2023/04/14 04:04:09;;;;;;;;;;;;;;;-0.32;56.29;102223.09;10525782;28;19927;-78
2023/04/14 04:09:14;;;;;;;;;;;;;;;-0.27;56.50;102241.47;10518947;28;19920;-77
2023/04/14 04:14:16;;;;;;;;;;;;;;;-0.33;56.38;102251.94;10486373;28;19920;-77
2023/04/14 04:19:20;;;;;;;;;;;;;;;-0.36;56.24;102256.78;10492689;28;19920;-76
2023/04/14 04:24:24;;;;;;;;;;;;;;;-0.36;55.86;102237.91;10493764;28;19924;-76
2023/04/14 04:29:26;;;;;;;;;;;;;;;-0.35;55.44;102272.84;10533130;28;19920;-77
2023/04/14 04:34:32;;;;;;;;;;;;;;;-0.33;55.75;102260.00;10521328;28;19952;-77
2023/04/14 04:39:35;;;;;;;;;;;;;;;-0.26;55.47;102240.44;10503297;28;19935;-76
2023/04/14 04:44:37;;;;;;;;;;;;;;;-0.21;55.00;102273.13;10500271;28;20395;-77
2023/04/14 04:49:39;;;;;;;;;;;;;;;-0.15;54.50;102262.53;10532456;28;19916;-77
2023/04/14 04:54:42;;;;;;;;;;;;;;;-0.06;54.68;102253.38;10508514;28;20399;-76
2023/04/14 04:59:45;;;;;;;;;;;;;;;0.06;53.79;102278.16;10507494;28;20406;-77
2023/04/14 05:04:47;;;;;;;;;;;;;;;0.14;53.28;102261.09;10533953;28;19936;-76
2023/04/14 05:09:49;;;;;;;;;;;;;;;0.25;52.80;102256.19;10514480;28;20392;-78
2023/04/14 05:14:51;;;;;;;;;;;;;;;0.39;52.76;102260.03;10539586;28;19920;-78
2023/04/14 05:19:53;;;;;;;;;;;;;;;0.52;52.43;102245.94;10523727;28;19925;-77
2023/04/14 05:24:56;;;;;;;;;;;;;;;0.57;51.83;102263.31;10519685;28;19928;-77
2023/04/14 05:29:58;;;;;;;;;;;;;;;0.85;51.38;102279.88;10557283;28;20508;-78
2023/04/14 05:35:01;;;;;;;;;;;;;;;1.20;50.63;102267.69;10571506;28;19927;-77
2023/04/14 05:40:03;;;;;;;;;;;;;;;1.99;48.99;102265.50;10572912;28;20186;-77
2023/04/14 05:45:06;;;;;;;;;;;;;;;2.46;47.41;102267.03;10560359;28;19920;-78
2023/04/14 05:50:08;;;;;;;;;;;;;;;2.71;46.77;102273.81;10531829;28;19921;-77
2023/04/14 05:55:10;;;;;;;;;;;;;;;3.36;45.91;102249.50;10531017;28;19921;-79
2023/04/14 06:00:12;;;;;;;;;;;;;;;3.30;45.19;102276.38;10529804;28;19920;-78
2023/04/14 06:05:17;;;;;;;;;;;;;;;3.65;44.87;102259.38;10534342;28;20361;-77
2023/04/14 06:10:19;;;;;;;;;;;;;;;3.46;45.14;102228.28;10530537;28;19993;-78
2023/04/14 06:15:25;;;;;;;;;;;;;;;3.89;43.79;102243.47;10564488;28;19919;-76
2023/04/14 06:20:28;;;;;;;;;;;;;;;4.41;42.99;102241.28;10567182;28;19920;-77
2023/04/14 06:25:30;;;;;;;;;;;;;;;4.31;42.45;102244.34;10530507;28;19920;-78
2023/04/14 06:30:32;;;;;;;;;;;;;;;4.26;42.33;102235.97;10548263;28;19960;-79
2023/04/14 06:35:34;;;;;;;;;;;;;;;4.23;41.46;102244.53;10517142;28;19924;-78
2023/04/14 06:40:37;;;;;;;;;;;;;;;3.96;43.19;102243.50;10543843;28;19920;-78
2023/04/14 06:45:39;;;;;;;;;;;;;;;4.12;42.08;102245.09;10543510;28;19941;-77
2023/04/14 06:50:41;;;;;;;;;;;;;;;4.09;41.38;102305.25;10571325;28;20284;-78
2023/04/14 06:55:43;;;;;;;;;;;;;;;3.80;41.64;102277.22;10571251;28;19963;-78
2023/04/14 07:00:46;;;;;;;;;;;;;;;3.81;41.64;102257.19;10546924;28;19920;-78
2023/04/14 07:05:48;;;;;;;;;;;;;;;4.15;41.66;102263.69;10530096;28;19927;-78
2023/04/14 07:10:50;;;;;;;;;;;;;;;4.71;39.73;102269.06;10556085;28;19920;-78
2023/04/14 07:15:53;;;;;;;;;;;;;;;5.34;38.79;102254.16;10492776;28;19920;-78
2023/04/14 07:20:55;;;;;;;;;;;;;;;5.63;38.56;102263.00;10540428;28;19920;-78
2023/04/14 07:25:59;;;;;;;;;;;;;;;6.40;36.88;102256.00;10563792;28;19920;-78
2023/04/14 07:31:06;;;;;;;;;;;;;;;6.79;36.65;102239.53;10571055;28;19927;-77
2023/04/14 07:36:08;;;;;;;;;;;;;;;7.16;35.15;102253.41;10571068;28;19919;-78
2023/04/14 07:41:10;;;;;;;;;;;;;;;7.58;34.80;102251.84;10526105;28;19927;-77
2023/04/14 07:46:12;;;;;;;;;;;;;;;6.97;34.20;102265.28;10554971;28;19915;-77
2023/04/14 07:51:15;;;;;;;;;;;;;;;7.34;34.68;102272.63;10567327;28;19924;-78
2023/04/14 07:56:17;;;;;;;;;;;;;;;6.87;34.03;102255.63;10539485;28;20337;-80
2023/04/14 08:01:19;;;;;;;;;;;;;;;6.88;33.80;102272.84;10573195;28;19920;-80
2023/04/14 08:06:21;;;;;;;;;;;;;;;7.21;33.13;102267.22;10493687;28;19926;-80
2023/04/14 08:11:23;;;;;;;;;;;;;;;7.26;33.47;102246.38;10523427;28;19920;-80
2023/04/14 08:16:26;;;;;;;;;;;;;;;8.02;32.41;102261.78;10552704;28;19946;-80
2023/04/14 08:21:28;;;;;;;;;;;;;;;8.46;32.17;102260.72;10542162;28;19920;-80
2023/04/14 08:26:30;;;;;;;;;;;;;;;7.63;33.35;102252.00;10535123;28;19920;-80
2023/04/14 08:31:33;;;;;;;;;;;;;;;8.32;32.61;102248.22;10534596;28;20243;-80
2023/04/14 08:36:35;;;;;;;;;;;;;;;8.51;33.00;102246.38;10541573;28;19924;-82
2023/04/14 08:41:38;;;;;;;;;;;;;;;8.70;32.40;102248.03;10546012;28;19921;-78
2023/04/14 08:46:41;;;;;;;;;;;;;;;8.44;32.10;102248.34;10554920;28;19920;-78
2023/04/14 08:51:43;;;;;;;;;;;;;;;8.18;32.42;102243.13;10546569;28;20414;-81
2023/04/14 08:56:46;;;;;;;;;;;;;;;8.49;32.67;102256.69;10514382;28;19920;-78
2023/04/14 09:01:48;;;;;;;;;;;;;;;7.96;34.38;102276.34;10512157;28;19939;-77
2023/04/14 09:06:51;;;;;;;;;;;;;;;7.35;34.81;102241.50;10507711;28;19920;-77
2023/04/14 09:11:53;;;;;;;;;;;;;;;6.22;36.08;102252.06;10516436;28;20526;-79
2023/04/14 09:16:55;;;;;;;;;;;;;;;6.08;37.01;102234.09;10525398;28;19924;-80
2023/04/14 09:21:57;;;;;;;;;;;;;;;5.33;37.45;102284.31;10498789;28;19924;-78
2023/04/14 09:27:02;;;;;;;;;;;;;;;4.35;39.86;102252.97;10495173;28;19935;-79
2023/04/14 09:32:05;;;;;;;;;;;;;;;4.14;40.34;102262.03;10525908;28;19943;-77
2023/04/14 09:37:08;;;;;;;;;;;;;;;4.00;40.50;102252.13;10506722;28;19920;-78
2023/04/14 09:42:10;;;;;;;;;;;;;;;4.04;41.35;102259.66;10523604;28;19926;-79
2023/04/14 09:47:16;;;;;;;;;;;;;;;4.06;40.74;102248.59;10533240;28;19924;-78
2023/04/14 09:52:18;;;;;;;;;;;;;;;3.76;40.81;102259.66;10509530;28;20299;-79
2023/04/14 09:57:24;;;;;;;;;;;;;;;3.60;41.77;102239.06;10548383;28;19920;-79
2023/04/14 10:02:26;;;;;;;;;;;;;;;3.26;41.81;102268.78;10554630;28;19920;-79
2023/04/14 10:07:28;;;;;;;;;;;;;;;3.57;41.62;102273.91;10531798;28;19920;-77
2023/04/14 10:12:30;;;;;;;;;;;;;;;3.23;42.08;102250.19;10546392;28;19920;-78
2023/04/14 10:17:32;;;;;;;;;;;;;;;3.43;42.26;102255.81;10490617;28;19921;-78
2023/04/14 10:22:34;;;;;;;;;;;;;;;3.36;41.92;102288.31;10470252;28;20380;-78
2023/04/14 10:27:36;;;;;;;;;;;;;;;3.03;43.30;102296.94;10487515;28;20398;-78
2023/04/14 10:32:39;;;;;;;;;;;;;;;2.95;43.24;102271.78;10473401;28;19921;-78
2023/04/14 10:37:48;;;;;;;;;;;;;;;3.10;43.26;102274.47;10470093;28;19917;-79
2023/04/14 10:42:50;;;;;;;;;;;;;;;3.09;42.77;102265.47;10453918;28;20035;-79
2023/04/14 10:47:52;;;;;;;;;;;;;;;3.16;42.54;102269.13;10478869;28;19920;-77
2023/04/14 10:52:54;;;;;;;;;;;;;;;3.14;43.15;102254.06;10510640;28;19920;-78
2023/04/14 10:58:04;;;;;;;;;;;;;;;3.29;42.51;102261.09;10527828;28;19920;-78
2023/04/14 11:03:10;;;;;;;;;;;;;;;3.23;42.77;102294.44;10528703;28;19924;-78
2023/04/14 11:08:14;;;;;;;;;;;;;;;3.27;42.67;102274.03;10522018;28;19931;-78
2023/04/14 11:13:16;;;;;;;;;;;;;;;3.28;42.74;102259.41;10528240;28;19920;-78
2023/04/14 11:18:41;;;;;;;;;;;;;;;3.46;42.32;102269.81;10528549;28;19926;-78
2023/04/14 11:23:43;;;;;;;;;;;;;;;3.62;41.59;102290.44;10509795;28;20388;-78
2023/04/14 11:28:45;;;;;;;;;;;;;;;3.52;41.86;102295.38;10527796;28;19920;-78
2023/04/14 11:33:47;;;;;;;;;;;;;;;3.60;40.98;102259.94;10542691;28;19920;-81
2023/04/14 11:38:49;;;;;;;;;;;;;;;3.79;40.73;102259.25;10500580;28;19934;-78
2023/04/14 11:43:51;;;;;;;;;;;;;;;3.87;41.18;102255.56;10540839;28;20416;-78
2023/04/14 11:48:54;;;;;;;;;;;;;;;3.84;41.23;102256.81;10527968;28;19920;-78
2023/04/14 11:53:58;;;;;;;;;;;;;;;3.76;41.61;102240.66;10531081;28;19920;-78
2023/04/14 11:59:00;;;;;;;;;;;;;;;3.80;41.13;102260.09;10527832;28;19926;-78
2023/04/14 12:04:06;;;;;;;;;;;;;;;3.84;40.92;102259.53;10542939;28;20294;-78
2023/04/14 12:09:17;;;;;;;;;;;;;;;3.81;40.48;102249.03;10531371;28;19920;-80
2023/04/14 12:14:19;;;;;;;;;;;;;;;4.00;40.03;102231.25;10522378;28;20315;-78
2023/04/14 12:19:21;;;;;;;;;;;;;;;4.22;39.40;102227.41;10514069;28;19927;-78
2023/04/14 12:24:22;;;;;;;;;;;;;;;4.19;38.75;102237.84;10532701;28;19965;-78
2023/04/14 12:29:31;;;;;;;;;;;;;;;4.22;38.82;102221.13;10557226;28;19919;-79
2023/04/14 12:34:57;;;;;;;;;;;;;;;4.32;38.60;102237.03;10530753;28;19932;-79
2023/04/14 12:40:00;;;;;;;;;;;;;;;4.35;37.94;102202.19;10557783;28;19920;-78
2023/04/14 12:45:02;;;;;;;;;;;;;;;4.54;37.03;102212.31;10575698;28;19927;-79
2023/04/14 12:50:23;;;;;;;;;;;;;;;4.52;36.95;102219.81;10545242;28;20342;-78
2023/04/14 12:55:27;;;;;;;;;;;;;;;4.56;36.48;102208.53;10511599;28;19920;-79
2023/04/14 13:00:29;;;;;;;;;;;;;;;4.62;36.75;102185.97;10493099;28;19920;-78
2023/04/14 13:05:31;;;;;;;;;;;;;;;4.73;36.07;102191.66;10512856;28;20291;-79
2023/04/14 13:10:33;;;;;;;;;;;;;;;4.76;35.90;102228.47;10514021;28;20453;-78
2023/04/14 13:15:35;;;;;;;;;;;;;;;4.79;35.23;102179.94;10514579;28;19959;-79
2023/04/14 13:20:37;;;;;;;;;;;;;;;4.83;35.47;102185.81;10514109;28;20031;-79
2023/04/14 13:25:39;;;;;;;;;;;;;;;4.88;35.11;102188.78;10527936;28;19920;-78
2023/04/14 13:30:42;;;;;;;;;;;;;;;4.93;34.75;102204.47;10497104;28;19920;-79
2023/04/14 13:35:44;;;;;;;;;;;;;;;4.95;34.69;102199.66;10526761;28;20388;-78
2023/04/14 13:40:46;;;;;;;;;;;;;;;5.04;35.25;102210.16;10530796;28;19920;-79
2023/04/14 13:45:48;;;;;;;;;;;;;;;5.13;34.46;102187.13;10526753;28;19932;-80
2023/04/14 13:50:50;;;;;;;;;;;;;;;5.20;34.58;102187.13;10524246;28;19924;-82
2023/04/14 13:55:52;;;;;;;;;;;;;;;5.22;34.20;102206.84;10529000;28;20438;-82
2023/04/14 14:00:55;;;;;;;;;;;;;;;5.24;34.52;102188.41;10478031;28;20322;-82
2023/04/14 14:05:57;;;;;;;;;;;;;;;5.27;34.77;102189.88;10515493;28;20307;-79
2023/04/14 14:10:59;;;;;;;;;;;;;;;5.30;34.59;102184.84;10508120;28;20007;-79
2023/04/14 14:16:02;;;;;;;;;;;;;;;5.27;35.10;102185.28;10485058;28;20288;-79
2023/04/14 14:21:04;;;;;;;;;;;;;;;5.34;34.94;102174.38;10493080;28;19927;-77
2023/04/14 14:26:08;;;;;;;;;;;;;;;5.43;34.86;102164.97;10523958;28;19998;-78
2023/04/14 14:31:10;;;;;;;;;;;;;;;5.43;34.96;102168.53;10500508;28;20307;-79
2023/04/14 14:36:13;;;;;;;;;;;;;;;5.43;35.17;102173.13;10502569;28;19921;-78
2023/04/14 14:41:15;;;;;;;;;;;;;;;5.45;35.57;102168.31;10493293;28;20308;-80
2023/04/14 14:46:17;;;;;;;;;;;;;;;5.51;35.76;102167.47;10465495;28;19921;-79
2023/04/14 14:51:19;;;;;;;;;;;;;;;5.55;35.00;102162.44;10473707;28;19920;-80
2023/04/14 14:56:22;;;;;;;;;;;;;;;5.59;35.46;102163.72;10438346;28;19921;-80
2023/04/14 15:01:24;;;;;;;;;;;;;;;5.60;35.18;102173.56;10451628;28;19920;-79
2023/04/14 15:06:26;;;;;;;;;;;;;;;5.59;35.49;102164.56;10470328;28;20344;-80
2023/04/14 15:11:28;;;;;;;;;;;;;;;5.61;35.05;102161.63;10482333;28;19920;-80
2023/04/14 15:16:30;;;;;;;;;;;;;;;5.62;35.03;102146.94;10464148;28;19916;-79
2023/04/14 15:21:33;;;;;;;;;;;;;;;5.61;35.19;102150.72;10467509;28;19920;-82
2023/04/14 15:26:34;;;;;;;;;;;;;;;5.58;36.21;102162.88;10488443;28;20034;-79
2023/04/14 15:31:36;;;;;;;;;;;;;;;5.57;35.94;102155.75;10477619;28;20124;-79
2023/04/14 15:36:38;;;;;;;;;;;;;;;5.54;36.11;102139.81;10480845;28;19924;-78
2023/04/14 15:41:40;;;;;;;;;;;;;;;5.59;36.15;102150.94;10515458;28;19920;-78
2023/04/14 15:46:42;;;;;;;;;;;;;;;5.55;36.30;102162.44;10533730;28;19920;-78
2023/04/14 15:51:44;;;;;;;;;;;;;;;5.44;37.18;102151.16;10549705;28;19926;-79
2023/04/14 15:56:46;;;;;;;;;;;;;;;5.41;37.62;102176.06;10507911;28;19927;-83
2023/04/14 16:01:48;;;;;;;;;;;;;;;5.32;37.30;102165.59;10512136;28;20399;-79
2023/04/14 16:06:50;;;;;;;;;;;;;;;5.34;37.14;102160.78;10536356;28;20019;-79
2023/04/14 16:11:52;;;;;;;;;;;;;;;5.31;37.87;102161.19;10526557;28;19920;-79
2023/04/14 16:16:54;;;;;;;;;;;;;;;5.26;37.27;102164.56;10540876;28;19924;-79
2023/04/14 16:21:57;;;;;;;;;;;;;;;5.18;38.32;102161.19;10543069;28;19974;-79
2023/04/14 16:26:59;;;;;;;;;;;;;;;5.06;38.77;102183.59;10530335;28;19928;-78
2023/04/14 16:32:01;;;;;;;;;;;;;;;5.07;38.61;102165.38;10556220;28;19920;-78
2023/04/14 16:37:03;;;;;;;;;;;;;;;5.04;38.94;102182.13;10534873;28;20308;-80
2023/04/14 16:42:06;;;;;;;;;;;;;;;4.96;39.27;102179.56;10481008;28;19920;-78
2023/04/14 16:47:08;;;;;;;;;;;;;;;4.87;39.51;102184.38;10514786;28;19927;-77
2023/04/14 16:52:10;;;;;;;;;;;;;;;4.79;39.67;102179.13;10534835;28;19917;-79
2023/04/14 16:57:12;;;;;;;;;;;;;;;4.73;39.38;102185.38;10534600;28;19920;-78
2023/04/14 17:02:14;;;;;;;;;;;;;;;4.69;39.50;102176.81;10532686;28;20023;-79
2023/04/14 17:07:16;;;;;;;;;;;;;;;4.61;39.44;102193.28;10492931;28;19982;-77
2023/04/14 17:12:18;;;;;;;;;;;;;;;4.56;39.80;102192.22;10491638;28;19921;-76
2023/04/14 17:17:20;;;;;;;;;;;;;;;4.52;40.07;102186.38;10491901;28;20300;-79
2023/04/14 17:22:22;;;;;;;;;;;;;;;4.45;39.92;102189.03;10508020;28;19920;-79
2023/04/14 17:27:25;;;;;;;;;;;;;;;4.39;39.70;102199.91;10532765;28;19920;-78
2023/04/14 17:32:27;;;;;;;;;;;;;;;4.32;39.98;102199.84;10514269;28;19927;-79
2023/04/14 17:37:29;;;;;;;;;;;;;;;4.31;39.79;102202.75;10531804;28;19928;-79
2023/04/14 17:42:31;;;;;;;;;;;;;;;4.32;39.93;102207.16;10527488;28;19920;-78
2023/04/14 17:47:36;;;;;;;;;;;;;;;4.25;40.11;102212.56;10531006;28;19963;-79
2023/04/14 17:52:39;;;;;;;;;;;;;;;4.18;39.71;102212.53;10521609;28;19921;-79
2023/04/14 17:57:42;;;;;;;;;;;;;;;4.16;39.54;102225.47;10476719;28;20342;-80
2023/04/14 18:02:46;;;;;;;;;;;;;;;4.06;38.76;102230.44;10554932;28;19927;-79
2023/04/14 18:07:48;;;;;;;;;;;;;;;4.07;38.92;102226.69;10540326;28;19924;-78
2023/04/14 18:12:50;;;;;;;;;;;;;;;4.03;38.72;102243.56;10489297;28;20000;-79
2023/04/14 18:17:56;;;;;;;;;;;;;;;3.98;38.84;102246.03;10488285;28;19920;-78
2023/04/14 18:23:00;;;;;;;;;;;;;;;3.85;38.69;102242.19;10488511;28;20410;-78
2023/04/14 18:28:05;;;;;;;;;;;;;;;3.86;38.88;102234.88;10486722;28;19927;-78
2023/04/14 18:33:07;;;;;;;;;;;;;;;3.79;38.26;102261.97;10487940;28;19924;-78
2023/04/14 18:38:10;;;;;;;;;;;;;;;3.74;37.83;102242.72;10470600;28;19927;-78
2023/04/14 18:43:12;;;;;;;;;;;;;;;3.72;37.44;102263.81;10474473;28;19980;-79
2023/04/14 18:48:20;;;;;;;;;;;;;;;3.65;37.64;102253.94;10470545;28;19920;-77
2023/04/14 18:53:22;;;;;;;;;;;;;;;3.58;37.55;102243.84;10488150;28;19926;-79
2023/04/14 18:58:29;;;;;;;;;;;;;;;3.50;37.47;102254.00;10498899;28;20018;-82
2023/04/14 19:03:31;;;;;;;;;;;;;;;3.40;37.07;102264.34;10530060;28;19920;-79
2023/04/14 19:08:33;;;;;;;;;;;;;;;3.43;36.92;102261.25;10503731;28;19942;-78
2023/04/14 19:13:38;;;;;;;;;;;;;;;3.34;37.19;102284.97;10497954;28;19924;-79
2023/04/14 19:18:40;;;;;;;;;;;;;;;3.21;37.21;102261.25;10550679;28;19924;-77
2023/04/14 19:23:44;;;;;;;;;;;;;;;3.19;36.82;102263.31;10526443;28;19927;-78
2023/04/14 19:28:46;;;;;;;;;;;;;;;3.13;37.12;102264.09;10535712;28;20391;-78
2023/04/14 19:33:48;;;;;;;;;;;;;;;3.02;37.01;102280.84;10524864;28;19988;-78
2023/04/14 19:38:53;;;;;;;;;;;;;;;2.98;36.92;102293.97;10490777;28;20517;-80
2023/04/14 19:43:55;;;;;;;;;;;;;;;2.98;37.22;102287.69;10534209;28;20347;-78
2023/04/14 19:48:57;;;;;;;;;;;;;;;2.89;37.26;102296.97;10553675;28;19926;-78
2023/04/14 19:54:00;;;;;;;;;;;;;;;2.88;36.95;102287.16;10521270;28;19926;-79
2023/04/14 19:59:02;;;;;;;;;;;;;;;2.86;37.12;102290.03;10534907;28;19920;-78
2023/04/14 20:04:04;;;;;;;;;;;;;;;2.78;37.15;102300.13;10533339;28;20002;-78
2023/04/14 20:09:06;;;;;;;;;;;;;;;2.75;37.25;102290.53;10538818;28;20379;-78
2023/04/14 20:14:09;;;;;;;;;;;;;;;2.75;37.30;102297.81;10509339;28;20023;-79
2023/04/14 20:19:11;;;;;;;;;;;;;;;2.71;36.90;102295.47;10512871;28;19920;-78
2023/04/14 20:24:13;;;;;;;;;;;;;;;2.63;37.14;102311.84;10519808;28;19921;-79
2023/04/14 20:29:16;;;;;;;;;;;;;;;2.51;37.26;102313.34;10504266;28;19935;-81
2023/04/14 20:34:18;;;;;;;;;;;;;;;2.48;37.74;102297.47;10493249;28;20022;-79
2023/04/14 20:39:20;;;;;;;;;;;;;;;2.42;37.45;102311.75;10522257;28;19924;-79
2023/04/14 20:44:23;;;;;;;;;;;;;;;2.34;38.24;102317.25;10493436;28;19926;-79
2023/04/14 20:49:25;;;;;;;;;;;;;;;2.30;37.89;102321.38;10547050;28;19920;-79
2023/04/14 20:54:27;;;;;;;;;;;;;;;2.27;38.44;102316.34;10518331;28;20399;-79
2023/04/14 20:59:29;;;;;;;;;;;;;;;2.18;38.74;102320.13;10520744;28;20245;-79
2023/04/14 21:04:31;;;;;;;;;;;;;;;2.15;38.66;102320.50;10542488;28;19924;-79
2023/04/14 21:09:33;;;;;;;;;;;;;;;2.10;38.59;102327.34;10545477;28;20424;-79
2023/04/14 21:14:40;;;;;;;;;;;;;;;2.02;39.28;102340.94;10522954;28;20852;-78
2023/04/14 21:19:42;;;;;;;;;;;;;;;1.98;39.31;102336.91;10524080;28;19921;-81
2023/04/14 21:24:48;;;;;;;;;;;;;;;1.96;39.42;102340.84;10509999;28;19928;-79
2023/04/14 21:29:51;;;;;;;;;;;;;;;1.89;39.17;102329.88;10531718;28;19969;-79
2023/04/14 21:34:53;;;;;;;;;;;;;;;1.79;39.26;102337.41;10537765;28;19924;-79
2023/04/14 21:39:56;;;;;;;;;;;;;;;1.72;39.51;102348.13;10503692;28;19927;-78
2023/04/14 21:44:59;;;;;;;;;;;;;;;1.68;39.86;102354.06;10505293;28;19920;-79
2023/04/14 21:50:01;;;;;;;;;;;;;;;1.52;40.49;102355.88;10531903;28;19926;-79
2023/04/14 21:55:03;;;;;;;;;;;;;;;1.47;40.51;102352.03;10537265;28;19939;-79
2023/04/14 22:00:12;;;;;;;;;;;;;;;1.38;41.04;102364.75;10509456;28;19932;-78
2023/04/14 22:05:14;;;;;;;;;;;;;;;1.32;41.50;102361.91;10537879;28;19926;-79
2023/04/14 22:10:15;;;;;;;;;;;;;;;1.24;41.48;102368.22;10542790;28;19920;-78
2023/04/14 22:15:18;;;;;;;;;;;;;;;1.29;41.01;102382.06;10536556;28;19920;-77
2023/04/14 22:20:22;;;;;;;;;;;;;;;1.24;41.52;102373.63;10528386;28;20399;-78
2023/04/14 22:25:24;;;;;;;;;;;;;;;1.17;40.82;102394.28;10515748;28;19919;-78
2023/04/14 22:30:27;;;;;;;;;;;;;;;1.14;41.23;102381.13;10501788;28;20380;-79
2023/04/14 22:35:29;;;;;;;;;;;;;;;1.15;41.13;102380.09;10500838;28;20087;-78
2023/04/14 22:40:31;;;;;;;;;;;;;;;1.16;40.94;102398.84;10504830;28;19920;-78
2023/04/14 22:45:35;;;;;;;;;;;;;;;1.07;41.42;102412.59;10537765;28;19958;-78
2023/04/14 22:50:37;;;;;;;;;;;;;;;0.99;41.07;102402.63;10548787;28;20307;-78
2023/04/14 22:55:39;;;;;;;;;;;;;;;1.01;40.92;102406.00;10563597;28;20330;-78
2023/04/14 23:00:44;;;;;;;;;;;;;;;1.00;40.63;102404.31;10535120;28;19927;-78
2023/04/14 23:05:47;;;;;;;;;;;;;;;1.05;40.78;102410.06;10521135;28;19927;-78
2023/04/14 23:10:50;;;;;;;;;;;;;;;1.09;40.62;102399.72;10525584;28;19924;-78
2023/04/14 23:15:52;;;;;;;;;;;;;;;1.05;40.83;102407.34;10528138;28;20031;-76
2023/04/14 23:20:56;;;;;;;;;;;;;;;0.97;40.53;102407.38;10510081;28;19920;-78
2023/04/14 23:25:58;;;;;;;;;;;;;;;0.92;41.04;102406.22;10526865;28;19928;-78
2023/04/14 23:31:00;;;;;;;;;;;;;;;0.89;40.90;102423.63;10522694;28;19931;-78
2023/04/14 23:36:02;;;;;;;;;;;;;;;0.78;41.47;102414.03;10527543;28;19920;-78
2023/04/14 23:41:06;;;;;;;;;;;;;;;0.68;40.93;102424.16;10509874;28;20007;-78
2023/04/14 23:46:08;;;;;;;;;;;;;;;0.65;41.55;102419.13;10525816;28;19920;-78
2023/04/14 23:51:10;;;;;;;;;;;;;;;0.57;42.25;102429.94;10526445;28;19931;-78
2023/04/14 23:56:12;;;;;;;;;;;;;;;0.48;42.07;102410.19;10487085;28;19921;-78
